createdAt,value
2018-08-22T00:00:15.503Z,767.40
2018-08-22T00:02:44.963Z,768.40
2018-08-22T00:05:14.334Z,753.80
2018-08-22T00:07:43.803Z,750.90
2018-08-22T00:10:13.627Z,755.20
2018-08-22T00:12:43.072Z,763.07
2018-08-22T00:15:12.660Z,654.73
2018-08-22T00:17:42.251Z,589.17
2018-08-22T00:20:11.788Z,584.67
2018-08-22T00:22:41.276Z,658.90
2018-08-22T00:25:10.720Z,667.93
2018-08-22T00:27:40.275Z,744.83
2018-08-22T00:30:09.668Z,778.83
2018-08-22T00:32:39.410Z,780.20
2018-08-22T00:35:08.969Z,794.63
2018-08-22T00:37:38.881Z,811.53
2018-08-22T00:40:18.057Z,830.53
2018-08-22T00:42:47.790Z,826.93
2018-08-22T00:45:17.271Z,840.30
2018-08-22T00:47:46.737Z,867.83
2018-08-22T00:50:16.167Z,830.90
2018-08-22T00:52:45.949Z,882.70
2018-08-22T00:55:15.437Z,861.77
2018-08-22T00:57:44.929Z,897.23
2018-08-22T01:00:14.617Z,877.97
2018-08-22T01:02:44.016Z,874.40
2018-08-22T01:05:13.448Z,871.30
2018-08-22T01:07:43.260Z,999.90
2018-08-22T01:10:12.717Z,983.47
2018-08-22T01:12:42.113Z,897.27
2018-08-22T01:15:11.527Z,864.73
2018-08-22T01:17:40.969Z,870.67
2018-08-22T01:20:15.192Z,835.10
2018-08-22T01:22:44.627Z,796.00
2018-08-22T01:25:13.989Z,793.23
2018-08-22T01:27:44.406Z,805.77
2018-08-22T01:30:13.850Z,772.20
2018-08-22T01:32:43.296Z,817.30
2018-08-22T01:35:12.720Z,807.87
2018-08-22T01:37:42.183Z,820.10
2018-08-22T01:40:15.971Z,765.23
2018-08-22T01:42:45.355Z,737.63
2018-08-22T01:45:14.773Z,738.63
2018-08-22T01:47:44.277Z,700.03
2018-08-22T01:50:13.672Z,681.77
2018-08-22T01:52:43.948Z,651.50
2018-08-22T01:55:13.385Z,667.33
2018-08-22T01:57:42.823Z,674.50
2018-08-22T02:00:15.913Z,656.30
2018-08-22T02:02:45.317Z,618.07
2018-08-22T02:05:14.749Z,635.07
2018-08-22T02:07:44.205Z,645.97
2018-08-22T02:10:13.606Z,615.37
2018-08-22T02:12:43.096Z,621.80
2018-08-22T02:15:12.490Z,633.53
2018-08-22T02:17:41.939Z,649.40
2018-08-22T02:20:11.356Z,683.07
2018-08-22T02:22:40.755Z,651.63
2018-08-22T02:25:10.189Z,646.83
2018-08-22T02:27:39.800Z,688.30
2018-08-22T02:30:13.113Z,616.80
2018-08-22T02:32:42.746Z,561.40
2018-08-22T02:35:12.129Z,587.47
2018-08-22T02:37:41.596Z,626.30
2018-08-22T02:40:13.989Z,621.00
2018-08-22T02:42:43.394Z,562.17
2018-08-22T02:45:13.449Z,669.90
2018-08-22T02:47:42.888Z,615.00
2018-08-22T02:50:12.324Z,593.60
2018-08-22T02:52:41.776Z,586.10
2018-08-22T02:55:12.828Z,608.83
2018-08-22T02:57:42.761Z,604.83
2018-08-22T03:00:14.570Z,615.03
2018-08-22T03:02:44.019Z,584.43
2018-08-22T03:05:13.419Z,550.77
2018-08-22T03:07:42.933Z,578.73
2018-08-22T03:10:12.687Z,553.37
2018-08-22T03:12:42.124Z,572.70
2018-08-22T03:15:15.231Z,610.13
2018-08-22T03:17:44.819Z,611.17
2018-08-22T03:20:14.245Z,586.57
2018-08-22T03:22:43.648Z,540.00
2018-08-22T03:25:13.646Z,555.77
2018-08-22T03:27:43.118Z,545.53
2018-08-22T03:30:15.637Z,550.43
2018-08-22T03:32:45.093Z,523.30
2018-08-22T03:35:14.524Z,519.80
2018-08-22T03:37:44.023Z,521.20
2018-08-22T03:40:15.697Z,542.67
2018-08-22T03:42:45.145Z,599.00
2018-08-22T03:45:14.546Z,570.07
2018-08-22T03:47:43.956Z,569.37
2018-08-22T03:50:13.909Z,545.93
2018-08-22T03:52:43.297Z,509.30
2018-08-22T03:55:14.812Z,492.93
2018-08-22T03:57:46.744Z,494.00
2018-08-22T04:00:16.196Z,522.87
2018-08-22T04:02:46.035Z,512.93
2018-08-22T04:05:15.860Z,469.50
2018-08-22T04:07:45.236Z,493.97
2018-08-22T04:10:14.633Z,461.30
2018-08-22T04:12:44.049Z,452.63
2018-08-22T04:15:13.480Z,467.53
2018-08-22T04:17:42.904Z,472.47
2018-08-22T04:20:15.835Z,450.87
2018-08-22T04:22:45.273Z,439.40
2018-08-22T04:25:14.637Z,445.93
2018-08-22T04:27:44.113Z,447.30
2018-08-22T04:30:16.080Z,462.37
2018-08-22T04:32:45.548Z,481.77
2018-08-22T04:35:22.201Z,550.53
2018-08-22T04:37:52.350Z,616.07
2018-08-22T04:40:21.752Z,531.43
2018-08-22T04:42:51.220Z,489.80
2018-08-22T04:45:20.622Z,495.00
2018-08-22T04:47:50.448Z,494.50
2018-08-22T04:50:19.877Z,535.70
2018-08-22T04:52:49.453Z,538.63
2018-08-22T04:55:18.853Z,587.97
2018-08-22T04:57:48.246Z,649.37
2018-08-22T05:00:17.719Z,672.90
2018-08-22T05:02:47.214Z,639.93
2018-08-22T05:05:16.594Z,601.27
2018-08-22T05:07:46.476Z,629.00
2018-08-22T05:10:15.864Z,597.90
2018-08-22T05:12:45.353Z,464.43
2018-08-22T05:15:15.209Z,400.53
2018-08-22T05:17:44.614Z,380.77
2018-08-22T05:20:14.091Z,378.73
2018-08-22T05:22:43.524Z,336.23
2018-08-22T05:25:12.972Z,393.87
2018-08-22T05:27:42.469Z,269.53
2018-08-22T05:30:14.424Z,375.57
2018-08-22T05:32:44.004Z,387.63
2018-08-22T05:35:13.437Z,363.77
2018-08-22T05:37:42.940Z,384.57
2018-08-22T05:40:15.265Z,383.87
2018-08-22T05:42:44.709Z,434.87
2018-08-22T05:45:16.395Z,266.33
2018-08-22T05:47:45.897Z,278.87
2018-08-22T05:50:15.263Z,341.17
2018-08-22T05:52:44.677Z,260.63
2018-08-22T05:55:14.781Z,369.30
2018-08-22T05:57:44.268Z,204.77
2018-08-22T06:00:16.716Z,235.17
2018-08-22T06:02:48.513Z,192.50
2018-08-22T06:05:21.706Z,206.20
2018-08-22T06:07:52.161Z,214.60
2018-08-22T06:10:21.619Z,198.90
2018-08-22T06:12:52.581Z,183.97
2018-08-22T06:15:26.008Z,343.88
2018-08-22T06:17:55.425Z,223.23
2018-08-22T06:20:25.712Z,234.47
2018-08-22T06:22:55.187Z,200.70
2018-08-22T06:25:25.981Z,188.67
2018-08-22T06:27:57.195Z,173.03
2018-08-22T06:30:28.302Z,196.43
2018-08-22T06:32:58.042Z,173.30
2018-08-22T06:35:28.373Z,166.90
2018-08-22T06:37:58.131Z,164.23
2018-08-22T06:40:33.661Z,180.67
2018-08-22T06:43:03.905Z,181.07
2018-08-22T06:45:36.834Z,171.57
2018-08-22T06:48:09.391Z,233.13
2018-08-22T06:50:40.777Z,232.40
2018-08-22T06:53:11.542Z,215.67
2018-08-22T06:55:42.005Z,228.90
2018-08-22T06:58:13.839Z,296.97
2018-08-22T07:00:48.281Z,306.87
2018-08-22T07:03:17.733Z,311.60
2018-08-22T07:05:47.801Z,265.73
2018-08-22T07:08:17.238Z,270.27
2018-08-22T07:10:47.611Z,275.13
2018-08-22T07:13:17.186Z,325.30
2018-08-22T07:15:49.017Z,386.43
2018-08-22T07:18:18.489Z,396.93
2018-08-22T07:20:48.496Z,418.77
2018-08-22T07:23:18.094Z,423.67
2018-08-22T07:25:48.120Z,481.40
2018-08-22T07:28:18.532Z,598.27
2018-08-22T07:30:47.968Z,655.73
2018-08-22T07:33:17.337Z,663.03
2018-08-22T07:35:46.942Z,749.87
2018-08-22T07:38:16.472Z,894.33
2018-08-22T07:40:45.884Z,830.23
2018-08-22T07:43:15.392Z,854.37
2018-08-22T07:45:44.796Z,917.67
2018-08-22T07:48:14.300Z,953.00
2018-08-22T07:50:43.897Z,926.20
2018-08-22T07:53:13.522Z,936.87
2018-08-22T07:55:43.795Z,928.07
2018-08-22T07:58:13.286Z,943.57
2018-08-22T08:00:42.763Z,977.60
2018-08-22T08:03:13.668Z,999.90
2018-08-22T08:05:43.774Z,999.90
2018-08-22T08:08:13.501Z,999.90
2018-08-22T08:10:42.940Z,999.90
2018-08-22T08:13:18.575Z,999.90
2018-08-22T08:15:48.211Z,999.90
2018-08-22T08:18:17.650Z,999.50
2018-08-22T08:20:47.390Z,997.83
2018-08-22T08:23:16.843Z,964.93
2018-08-22T08:25:46.211Z,977.33
2018-08-22T08:28:15.684Z,999.90
2018-08-22T08:30:46.209Z,999.90
2018-08-22T08:33:15.647Z,999.90
2018-08-22T08:35:45.061Z,999.90
2018-08-22T08:38:14.745Z,999.90
2018-08-22T08:40:44.150Z,999.90
2018-08-22T08:43:13.980Z,999.90
2018-08-22T08:45:44.325Z,999.90
2018-08-22T08:48:13.901Z,999.90
2018-08-22T08:50:43.280Z,999.90
2018-08-22T08:53:12.747Z,999.90
2018-08-22T08:55:42.432Z,999.90
2018-08-22T08:58:11.903Z,999.90
2018-08-22T09:00:41.309Z,999.90
2018-08-22T09:03:10.699Z,999.90
2018-08-22T09:05:40.510Z,999.90
2018-08-22T09:08:09.895Z,999.90
2018-08-22T09:10:39.363Z,999.90
2018-08-22T09:13:10.280Z,999.90
2018-08-22T09:15:39.707Z,999.90
2018-08-22T09:18:09.329Z,999.90
2018-08-22T09:20:39.197Z,999.90
2018-08-22T09:23:08.890Z,999.90
2018-08-22T09:25:38.357Z,999.90
2018-08-22T09:28:07.775Z,999.90
2018-08-22T09:30:37.388Z,999.90
2018-08-22T09:33:06.872Z,999.90
2018-08-22T09:35:36.350Z,999.90
2018-08-22T09:38:05.973Z,999.90
2018-08-22T09:40:35.373Z,999.90
2018-08-22T09:43:04.784Z,999.90
2018-08-22T09:45:34.393Z,999.90
2018-08-22T09:48:03.806Z,999.90
2018-08-22T09:50:33.308Z,999.90
2018-08-22T09:53:02.701Z,999.90
2018-08-22T09:55:32.781Z,999.90
2018-08-22T09:58:02.274Z,999.90
2018-08-22T10:00:36.899Z,999.90
2018-08-22T10:03:06.495Z,999.90
2018-08-22T10:05:35.894Z,999.90
2018-08-22T10:08:05.821Z,999.90
2018-08-22T10:10:35.212Z,999.90
2018-08-22T10:13:04.647Z,999.90
2018-08-22T10:15:34.054Z,999.90
2018-08-22T10:18:03.745Z,999.90
2018-08-22T10:20:33.517Z,999.90
2018-08-22T10:23:02.933Z,999.90
2018-08-22T10:25:32.395Z,999.90
2018-08-22T10:28:03.133Z,999.90
2018-08-22T10:30:32.615Z,999.90
2018-08-22T10:33:02.055Z,999.90
2018-08-22T10:35:31.617Z,999.90
2018-08-22T10:38:01.037Z,999.90
2018-08-22T10:40:31.081Z,999.90
2018-08-22T10:43:00.512Z,999.90
2018-08-22T10:45:29.961Z,999.90
2018-08-22T10:47:59.406Z,999.90
2018-08-22T10:50:29.026Z,999.90
2018-08-22T10:52:58.685Z,999.90
2018-08-22T10:55:32.901Z,999.90
2018-08-22T10:58:02.302Z,999.90
2018-08-22T11:00:31.702Z,999.90
2018-08-22T11:03:01.129Z,999.90
2018-08-22T11:05:30.842Z,999.90
2018-08-22T11:08:01.058Z,999.90
2018-08-22T11:10:31.707Z,999.90
2018-08-22T11:13:01.258Z,999.90
2018-08-22T11:15:32.297Z,999.90
2018-08-22T11:18:01.938Z,999.90
2018-08-22T11:20:32.060Z,999.90
2018-08-22T11:23:13.036Z,999.90
2018-08-22T11:25:53.600Z,999.90
2018-08-22T11:28:34.152Z,999.90
2018-08-22T11:31:14.680Z,999.90
2018-08-22T11:33:55.093Z,999.90
2018-08-22T11:36:23.865Z,999.90
2018-08-22T11:38:53.245Z,999.90
2018-08-22T11:41:22.734Z,999.90
2018-08-22T11:43:52.621Z,999.90
2018-08-22T11:46:22.068Z,999.90
2018-08-22T11:48:52.613Z,999.90
2018-08-22T11:51:22.073Z,999.90
2018-08-22T11:53:51.578Z,999.90
2018-08-22T11:56:21.002Z,999.90
2018-08-22T11:58:50.441Z,999.90
2018-08-22T12:01:19.954Z,999.90
2018-08-22T12:03:49.343Z,999.90
2018-08-22T12:06:18.772Z,999.90
2018-08-22T12:08:48.604Z,999.90
2018-08-22T12:11:18.058Z,999.90
2018-08-22T12:13:47.560Z,999.90
2018-08-22T12:16:16.973Z,999.90
2018-08-22T12:18:46.488Z,999.90
2018-08-22T12:21:15.977Z,999.90
2018-08-22T12:23:45.381Z,999.90
2018-08-22T12:26:14.790Z,999.90
2018-08-22T12:28:44.257Z,999.90
2018-08-22T12:31:14.274Z,999.90
2018-08-22T12:33:43.789Z,999.90
2018-08-22T12:36:13.216Z,999.90
2018-08-22T12:38:42.713Z,999.90
2018-08-22T12:41:12.311Z,999.90
2018-08-22T12:43:41.749Z,999.90
2018-08-22T12:46:11.267Z,999.90
2018-08-22T12:48:40.761Z,999.90
2018-08-22T12:51:10.215Z,999.90
2018-08-22T12:53:39.712Z,999.90
2018-08-22T12:56:09.225Z,999.90
2018-08-22T12:58:38.644Z,999.90
2018-08-22T13:01:08.315Z,999.90
2018-08-22T13:03:37.775Z,999.90
2018-08-22T13:06:08.184Z,999.90
2018-08-22T13:08:37.605Z,999.90
2018-08-22T13:11:07.280Z,999.90
2018-08-22T13:13:36.788Z,999.90
2018-08-22T13:16:07.365Z,999.90
2018-08-22T13:18:36.766Z,999.90
2018-08-22T13:21:06.683Z,999.90
2018-08-22T13:23:36.144Z,999.90
2018-08-22T13:26:05.910Z,999.90
2018-08-22T13:28:35.331Z,999.90
2018-08-22T13:31:04.930Z,999.90
2018-08-22T13:33:34.358Z,999.90
2018-08-22T13:36:03.808Z,999.90
2018-08-22T13:38:33.407Z,999.90
2018-08-22T13:41:03.286Z,999.90
2018-08-22T13:43:32.801Z,999.90
2018-08-22T13:46:02.197Z,999.90
2018-08-22T13:48:31.709Z,999.90
2018-08-22T13:51:01.210Z,999.90
2018-08-22T13:53:30.615Z,999.90
2018-08-22T13:56:00.079Z,999.90
2018-08-22T13:58:29.699Z,999.90
2018-08-22T14:00:59.094Z,999.90
2018-08-22T14:03:28.506Z,999.90
2018-08-22T14:05:57.972Z,999.90
2018-08-22T14:08:27.474Z,999.90
2018-08-22T14:10:56.937Z,999.90
2018-08-22T14:13:26.359Z,999.90
2018-08-22T14:15:56.154Z,999.90
2018-08-22T14:18:25.834Z,999.90
2018-08-22T14:20:55.491Z,999.90
2018-08-22T14:23:24.952Z,999.90
2018-08-22T14:25:54.367Z,999.90
2018-08-22T14:28:25.501Z,999.90
2018-08-22T14:30:54.957Z,999.90
2018-08-22T14:33:24.564Z,999.90
2018-08-22T14:35:54.086Z,999.90
2018-08-22T14:38:23.573Z,999.90
2018-08-22T14:40:53.129Z,999.90
2018-08-22T14:43:22.525Z,999.90
2018-08-22T14:45:52.132Z,999.90
2018-08-22T14:48:21.528Z,999.90
2018-08-22T14:50:50.960Z,999.90
2018-08-22T14:53:21.463Z,999.90
2018-08-22T14:55:51.011Z,999.90
2018-08-22T14:58:20.499Z,999.90
2018-08-22T15:00:49.991Z,999.90
2018-08-22T15:03:20.619Z,999.90
2018-08-22T15:05:50.045Z,999.90
2018-08-22T15:08:19.472Z,999.90
2018-08-22T15:10:49.168Z,999.90
2018-08-22T15:13:18.795Z,999.90
2018-08-22T15:15:48.201Z,999.90
2018-08-22T15:18:17.680Z,999.90
2018-08-22T15:20:47.122Z,999.90
2018-08-22T15:23:16.568Z,999.90
2018-08-22T15:25:46.052Z,999.90
2018-08-22T15:28:15.665Z,999.90
2018-08-22T15:30:46.160Z,999.90
2018-08-22T15:33:15.577Z,999.90
2018-08-22T15:35:45.109Z,999.90
2018-08-22T15:38:14.511Z,999.90
2018-08-22T15:40:44.119Z,999.90
2018-08-22T15:43:13.710Z,999.90
2018-08-22T15:45:43.260Z,999.90
2018-08-22T15:48:12.749Z,999.90
2018-08-22T15:50:42.269Z,999.90
2018-08-22T15:53:11.747Z,999.90
2018-08-22T15:55:41.413Z,999.90
2018-08-22T15:58:10.810Z,999.90
2018-08-22T16:00:44.508Z,999.90
2018-08-22T16:03:13.933Z,999.90
2018-08-22T16:05:44.398Z,999.90
2018-08-22T16:08:15.648Z,999.90
2018-08-22T16:10:45.304Z,999.90
2018-08-22T16:13:30.326Z,999.90
2018-08-22T16:16:02.500Z,999.90
2018-08-22T16:18:35.628Z,999.90
2018-08-22T16:21:06.901Z,999.90
2018-08-22T16:23:36.430Z,999.90
2018-08-22T16:26:06.329Z,999.90
2018-08-22T16:28:49.725Z,999.90
2018-08-22T16:31:19.177Z,999.90
2018-08-22T16:33:48.733Z,999.90
2018-08-22T16:36:24.038Z,999.90
2018-08-22T16:38:53.805Z,999.90
2018-08-22T16:41:23.222Z,999.90
2018-08-22T16:43:52.653Z,999.90
2018-08-22T16:46:23.430Z,999.90
2018-08-22T16:48:54.264Z,999.90
2018-08-22T16:51:24.725Z,999.90
2018-08-22T16:54:01.105Z,999.90
2018-08-22T16:56:32.169Z,999.90
2018-08-22T16:59:06.951Z,999.90
2018-08-22T17:01:37.066Z,999.90
2018-08-22T17:04:06.925Z,999.90
2018-08-22T17:06:36.434Z,999.90
2018-08-22T17:09:08.461Z,999.90
2018-08-22T17:11:38.256Z,999.90
2018-08-22T17:14:07.742Z,999.90
2018-08-22T17:16:37.319Z,999.90
2018-08-22T17:19:06.818Z,999.90
2018-08-22T17:21:36.234Z,999.90
2018-08-22T17:24:05.964Z,999.90
2018-08-22T17:26:35.412Z,999.90
2018-08-22T17:29:04.972Z,999.90
2018-08-22T17:31:34.402Z,999.90
2018-08-22T17:34:04.176Z,999.90
2018-08-22T17:36:33.643Z,999.90
2018-08-22T17:39:03.302Z,999.90
2018-08-22T17:41:32.793Z,999.90
2018-08-22T17:44:06.734Z,999.90
2018-08-22T17:46:42.624Z,999.90
2018-08-22T17:49:12.050Z,999.90
2018-08-22T17:52:14.367Z,999.90
2018-08-22T17:54:43.821Z,999.90
2018-08-22T17:57:21.996Z,999.90
2018-08-22T17:59:51.405Z,999.90
2018-08-22T18:02:21.557Z,999.90
2018-08-22T18:05:00.073Z,999.90
2018-08-22T18:07:29.681Z,999.90
2018-08-22T18:09:59.210Z,999.90
2018-08-22T18:12:28.925Z,999.90
2018-08-22T18:15:00.532Z,999.90
2018-08-22T18:17:30.045Z,999.90
2018-08-22T18:19:59.515Z,999.90
2018-08-22T18:22:33.741Z,999.90
2018-08-22T18:25:07.922Z,999.90
2018-08-22T18:27:39.035Z,999.90
2018-08-22T18:30:14.592Z,999.90
2018-08-22T18:32:45.584Z,999.90
2018-08-22T18:35:15.142Z,999.90
2018-08-22T18:37:44.666Z,999.90
2018-08-22T18:40:17.640Z,999.90
2018-08-22T18:42:48.842Z,999.90
2018-08-22T18:45:18.650Z,999.90
2018-08-22T18:47:48.221Z,999.90
2018-08-22T18:50:17.924Z,999.90
2018-08-22T18:52:48.916Z,999.90
2018-08-22T18:55:18.983Z,999.90
2018-08-22T18:57:48.453Z,999.90
2018-08-22T19:00:17.972Z,999.90
2018-08-22T19:02:49.393Z,999.90
2018-08-22T19:05:22.314Z,999.90
2018-08-22T19:08:08.551Z,999.90
2018-08-22T19:10:42.389Z,999.90
2018-08-22T19:13:17.153Z,999.90
2018-08-22T19:15:59.554Z,999.90
2018-08-22T19:18:29.149Z,999.90
2018-08-22T19:21:00.590Z,999.90
2018-08-22T19:23:31.335Z,999.90
2018-08-22T19:26:01.893Z,999.90
2018-08-22T19:28:32.813Z,999.90
2018-08-22T19:31:02.216Z,999.90
2018-08-22T19:33:31.697Z,999.90
2018-08-22T19:36:01.399Z,999.90
2018-08-22T19:38:31.432Z,999.90
2018-08-22T19:41:14.956Z,999.90
2018-08-22T19:43:44.492Z,999.90
2018-08-22T19:46:14.064Z,999.90
2018-08-22T19:48:43.587Z,999.90
2018-08-22T19:51:13.053Z,999.90
2018-08-22T19:53:54.212Z,999.90
2018-08-22T19:56:23.964Z,999.90
2018-08-22T19:58:53.555Z,999.90
2018-08-22T20:01:23.268Z,999.90
2018-08-22T20:03:54.046Z,999.90
2018-08-22T20:06:24.067Z,999.90
2018-08-22T20:08:54.674Z,999.90
2018-08-22T20:11:25.024Z,999.90
2018-08-22T20:14:03.356Z,999.90
2018-08-22T20:16:32.873Z,999.90
2018-08-22T20:19:03.664Z,999.90
2018-08-22T20:21:35.419Z,999.90
2018-08-22T20:24:06.353Z,999.90
2018-08-22T20:26:36.469Z,999.90
2018-08-22T20:29:06.280Z,999.90
2018-08-22T20:31:36.746Z,999.90
2018-08-22T20:34:08.927Z,999.90
2018-08-22T20:36:39.387Z,999.90
2018-08-22T20:39:10.866Z,999.90
2018-08-22T20:41:41.004Z,999.90
2018-08-22T20:44:15.361Z,999.90
2018-08-22T20:46:45.907Z,999.90
2018-08-22T20:49:17.069Z,999.90
2018-08-22T20:51:46.782Z,999.90
2018-08-22T20:54:20.751Z,999.90
2018-08-22T20:56:55.601Z,999.90
2018-08-22T20:59:25.088Z,999.90
2018-08-22T21:02:09.985Z,999.90
2018-08-22T21:04:39.596Z,999.90
2018-08-22T21:07:09.053Z,999.90
2018-08-22T21:09:38.482Z,999.90
2018-08-22T21:12:07.976Z,999.90
2018-08-22T21:14:37.427Z,999.90
2018-08-22T21:17:07.082Z,999.90
2018-08-22T21:19:36.480Z,999.90
2018-08-22T21:22:16.043Z,999.90
2018-08-22T21:24:46.441Z,999.90
2018-08-22T21:27:16.080Z,999.90
2018-08-22T21:29:45.597Z,999.90
2018-08-22T21:32:15.133Z,999.90
2018-08-22T21:34:44.635Z,999.90
2018-08-22T21:37:22.189Z,999.90
2018-08-22T21:39:51.583Z,999.90
2018-08-22T21:42:26.292Z,999.90
2018-08-22T21:44:56.440Z,999.90
2018-08-22T21:47:25.876Z,999.90
2018-08-22T21:49:55.374Z,999.90
2018-08-22T21:52:24.894Z,999.90
2018-08-22T21:54:54.657Z,999.90
2018-08-22T21:57:24.306Z,999.90
2018-08-22T21:59:58.909Z,999.90
2018-08-22T22:02:28.432Z,999.90
2018-08-22T22:04:57.907Z,999.90
2018-08-22T22:07:27.549Z,999.90
2018-08-22T22:10:01.170Z,999.90
2018-08-22T22:12:36.768Z,999.90
2018-08-22T22:15:17.565Z,999.90
2018-08-22T22:17:47.008Z,999.90
2018-08-22T22:20:16.449Z,999.90
2018-08-22T22:22:46.031Z,999.90
2018-08-22T22:25:15.512Z,999.90
2018-08-22T22:27:46.417Z,999.90
2018-08-22T22:30:16.292Z,999.90
2018-08-22T22:32:45.813Z,999.90
2018-08-22T22:35:22.809Z,999.90
2018-08-22T22:37:53.489Z,999.90
2018-08-22T22:40:26.972Z,999.90
2018-08-22T22:42:56.499Z,999.90
2018-08-22T22:45:25.995Z,999.90
2018-08-22T22:47:55.436Z,999.90
2018-08-22T22:50:24.975Z,999.90
2018-08-22T22:52:54.970Z,999.90
2018-08-22T22:55:25.163Z,999.90
2018-08-22T22:57:54.561Z,999.90
2018-08-22T23:00:24.011Z,999.90
2018-08-22T23:02:58.723Z,999.90
2018-08-22T23:05:32.893Z,999.90
2018-08-22T23:08:02.645Z,999.90
2018-08-22T23:10:32.184Z,999.90
2018-08-22T23:13:01.633Z,999.90
2018-08-22T23:15:31.624Z,999.90
2018-08-22T23:18:02.986Z,999.90
2018-08-22T23:20:36.322Z,999.90
2018-08-22T23:23:16.789Z,999.90
2018-08-22T23:25:46.185Z,999.90
2018-08-22T23:28:15.643Z,999.90
2018-08-22T23:30:45.116Z,999.90
2018-08-22T23:33:14.564Z,999.90
2018-08-22T23:35:43.993Z,999.90
2018-08-22T23:38:18.696Z,999.90
2018-08-22T23:40:48.770Z,999.90
2018-08-22T23:43:18.155Z,999.90
2018-08-22T23:45:57.533Z,999.90
2018-08-22T23:48:32.314Z,999.90
2018-08-22T23:51:03.334Z,999.90
2018-08-22T23:53:38.898Z,999.90
2018-08-22T23:56:17.620Z,999.90
2018-08-22T23:58:48.032Z,999.90
